Time;durP1;ratioP1;P1;durP2;ratioP2;P2;SDS_P1;SDS_P2;PMS_P1;PMS_P2;Temp;Humidity;BMP_temperature;BMP_pressure;BME280_temperature;BME280_humidity;BME280_pressure;Samples;Min_cycle;Max_cycle;Signal;HPM_P1;HPM_P2
2022/11/14 00:01:16;;;;;;;0.55;0.55;;;18.30;61.00;;;18.22;44.29;95520.97;4834023;29;20298;-74
2022/11/14 00:04:02;;;;;;;0.40;0.40;;;18.30;61.00;;;18.23;44.71;95511.16;4821104;29;20302;-74
2022/11/14 00:06:47;;;;;;;0.50;0.50;;;18.30;61.00;;;18.20;44.84;95511.59;4833636;29;20213;-74
2022/11/14 00:09:33;;;;;;;0.55;0.55;;;18.30;60.90;;;18.20;44.38;95525.69;4820975;29;20197;-74
2022/11/14 00:12:18;;;;;;;0.50;0.50;;;18.30;61.00;;;18.23;44.57;95527.09;4847494;29;20351;-75
2022/11/14 00:15:05;;;;;;;0.40;0.40;;;18.30;61.00;;;18.20;44.95;95520.38;4833837;29;20198;-74
2022/11/14 00:17:51;;;;;;;0.50;0.50;;;18.30;61.00;;;18.21;44.87;95526.50;4833587;29;20205;-74
2022/11/14 00:20:37;;;;;;;0.40;0.40;;;18.30;61.00;;;18.22;44.55;95528.94;4833249;29;20215;-74
2022/11/14 00:23:22;;;;;;;0.52;0.52;;;18.30;61.00;;;18.20;44.48;95522.22;4820570;29;20221;-74
2022/11/14 00:26:08;;;;;;;0.40;0.40;;;18.30;61.00;;;18.20;44.47;95527.53;4833672;29;20218;-74
2022/11/14 00:28:54;;;;;;;0.50;0.50;;;18.30;60.90;;;18.21;44.52;95513.22;4833340;29;20251;-74
2022/11/14 00:31:39;;;;;;;0.40;0.40;;;18.30;61.00;;;18.19;44.74;95533.88;4832881;29;20351;-74
2022/11/14 00:34:25;;;;;;;0.50;0.50;;;18.30;61.00;;;18.17;44.75;95520.81;4833296;29;20198;-74
2022/11/14 00:37:11;;;;;;;0.40;0.40;;;18.30;61.90;;;18.20;44.87;95525.69;4833921;29;20619;-75
2022/11/14 00:39:56;;;;;;;0.50;0.50;;;18.30;61.00;;;18.21;44.76;95523.84;4838508;29;20213;-74
2022/11/14 00:42:43;;;;;;;0.40;0.40;;;18.30;61.00;;;18.20;44.43;95524.88;4838645;29;20214;-74
2022/11/14 00:45:28;;;;;;;0.52;0.52;;;18.30;61.00;;;18.20;44.49;95528.34;4838811;29;20200;-74
2022/11/14 00:48:16;;;;;;;0.40;0.40;;;18.30;60.90;;;18.18;45.01;95519.78;4850717;29;20281;-75
2022/11/14 00:51:01;;;;;;;0.40;0.40;;;18.30;61.00;;;18.15;44.53;95522.91;4865338;29;20196;-75
2022/11/14 00:53:47;;;;;;;0.50;0.50;;;18.30;61.00;;;18.20;44.87;95532.84;4851331;29;20205;-74
2022/11/14 00:56:32;;;;;;;0.40;0.40;;;18.30;61.00;;;18.15;44.71;95520.25;4864980;29;20675;-74
2022/11/14 00:59:18;;;;;;;0.50;0.50;;;18.30;61.00;;;18.18;44.77;95541.03;4851266;29;20197;-74
2022/11/14 01:02:04;;;;;;;0.40;0.40;;;18.30;61.10;;;18.18;44.71;95533.06;4851505;29;20197;-74
2022/11/14 01:04:49;;;;;;;0.47;0.47;;;18.30;61.00;;;18.18;44.76;95533.06;4851098;29;20730;-75
2022/11/14 01:07:35;;;;;;;0.40;0.40;;;18.30;61.00;;;18.19;44.81;95529.38;4851048;29;20208;-74
2022/11/14 01:10:21;;;;;;;0.50;0.50;;;18.30;61.00;;;18.19;44.51;95528.59;4837976;29;20656;-74
2022/11/14 01:13:07;;;;;;;0.40;0.40;;;18.30;61.00;;;18.16;44.41;95529.84;4850806;29;20635;-74
2022/11/14 01:15:53;;;;;;;0.50;0.50;;;18.30;61.10;;;18.18;44.93;95526.94;4838073;29;20202;-74
2022/11/14 01:18:40;;;;;;;0.50;0.50;;;18.30;61.00;;;18.17;44.70;95530.63;4850500;29;20202;-74
2022/11/14 01:21:26;;;;;;;0.50;0.50;;;18.30;61.10;;;18.12;45.27;95517.22;4851061;29;20198;-74
2022/11/14 01:24:11;;;;;;;0.50;0.50;;;18.30;61.00;;;18.15;44.93;95525.56;4850855;29;20224;-74
2022/11/14 01:26:57;;;;;;;0.60;0.60;;;18.30;61.00;;;18.15;45.00;95522.91;4864685;29;20258;-74
2022/11/14 01:29:43;;;;;;;0.55;0.55;;;18.30;61.00;;;18.08;45.01;95501.75;4864205;29;20330;-74
2022/11/14 01:32:28;;;;;;;0.40;0.40;;;18.30;61.00;;;18.16;44.57;95527.19;4850882;29;20266;-74
2022/11/14 01:35:14;;;;;;;0.50;0.50;;;18.30;61.00;;;18.11;44.93;95513.75;4850688;29;20193;-74
2022/11/14 01:38:00;;;;;;;0.50;0.50;;;18.30;61.00;;;18.16;44.81;95515.75;4837492;29;20278;-74
2022/11/14 01:40:45;;;;;;;0.50;0.50;;;18.30;61.10;;;18.15;44.73;95514.13;4837842;29;20250;-74
2022/11/14 01:43:35;;;;;;;0.50;0.50;;;18.30;61.10;;;18.15;44.31;95493.69;4850373;29;20249;-75
2022/11/14 01:46:36;;;;;;;0.50;0.50;;;18.30;61.10;;;18.13;44.84;95476.38;4850731;29;20198;-74
2022/11/14 01:49:27;;;;;;;0.50;0.50;;;18.30;61.10;;;18.14;44.43;95472.66;4837219;29;20303;-74
2022/11/14 01:52:17;;;;;;;0.50;0.50;;;18.20;60.90;;;18.05;44.77;95453.59;4864254;29;20265;-74
2022/11/14 01:55:08;;;;;;;0.50;0.50;;;18.30;61.00;;;18.14;44.61;95468.19;4850064;29;20289;-74
2022/11/14 01:57:53;;;;;;;0.50;0.50;;;18.30;61.10;;;18.14;44.79;95459.41;4837681;29;20206;-74
2022/11/14 02:00:39;;;;;;;0.50;0.50;;;18.20;61.00;;;18.13;44.52;95453.28;4850102;29;20206;-74
2022/11/14 02:03:25;;;;;;;0.50;0.50;;;18.20;60.90;;;18.13;44.60;95447.19;4850056;29;20697;-74
2022/11/14 02:06:15;;;;;;;0.50;0.50;;;18.20;60.90;;;18.10;44.59;95442.31;4850122;29;20201;-74
2022/11/14 02:09:05;;;;;;;0.40;0.40;;;18.20;60.90;;;18.13;44.57;95447.19;4849658;29;20276;-74
2022/11/14 02:11:54;;;;;;;0.40;0.40;;;18.20;61.00;;;18.06;44.84;95441.94;4849964;29;20634;-74
2022/11/14 02:14:44;;;;;;;0.50;0.50;;;18.20;61.00;;;18.12;44.49;95443.69;4837010;29;20648;-74
2022/11/14 02:17:30;;;;;;;0.40;0.40;;;18.20;61.00;;;18.12;44.81;95440.25;4849774;29;20254;-74
2022/11/14 02:20:28;;;;;;;0.50;0.50;;;18.20;60.90;;;18.13;44.57;95433.91;4850015;29;20205;-74
2022/11/14 02:23:24;;;;;;;0.40;0.40;;;18.20;60.90;;;18.11;44.66;95430.66;4837435;29;20324;-74
2022/11/14 02:26:10;;;;;;;0.40;0.40;;;18.20;61.00;;;18.08;44.82;95432.72;4849428;29;20357;-74
2022/11/14 02:28:56;;;;;;;0.50;0.50;;;18.20;61.00;;;18.10;44.45;95432.47;4849827;29;20277;-74
2022/11/14 02:31:41;;;;;;;0.40;0.40;;;18.20;61.00;;;18.10;44.34;95437.78;4863556;29;20666;-74
2022/11/14 02:34:27;;;;;;;0.50;0.50;;;18.20;61.00;;;18.07;44.96;95428.44;4849632;29;20332;-74
2022/11/14 02:37:13;;;;;;;0.50;0.50;;;18.20;61.00;;;18.11;44.61;95435.97;4835171;29;20688;-74
2022/11/14 02:39:59;;;;;;;0.50;0.50;;;18.20;61.00;;;18.11;44.67;95434.09;4844761;29;20638;-74
2022/11/14 02:42:44;;;;;;;0.30;0.30;;;18.20;61.00;;;18.10;44.32;95437.00;4844978;29;20261;-74
2022/11/14 02:45:29;;;;;;;0.50;0.50;;;18.20;61.00;;;18.06;45.05;95432.13;4844458;29;20221;-74
2022/11/14 02:48:15;;;;;;;0.50;0.50;;;18.20;61.00;;;18.11;44.90;95436.75;4844913;29;20222;-74
2022/11/14 02:51:00;;;;;;;0.50;0.50;;;18.20;61.00;;;18.11;44.84;95435.97;4831293;29;20300;-74
2022/11/14 02:53:46;;;;;;;0.50;0.50;;;18.20;61.00;;;18.10;44.90;95421.06;4831407;29;20703;-74
2022/11/14 02:56:31;;;;;;;0.50;0.50;;;18.20;61.00;;;18.06;44.54;95418.84;4830742;29;20715;-75
2022/11/14 02:59:17;;;;;;;0.50;0.50;;;18.20;61.00;;;18.09;44.78;95433.56;4843802;29;20214;-74
2022/11/14 03:02:03;;;;;;;0.43;0.43;;;18.20;61.00;;;18.05;44.69;95427.06;4830736;29;20287;-74
2022/11/14 03:04:49;;;;;;;0.50;0.50;;;18.20;61.00;;;18.09;44.74;95430.91;4830827;29;20550;-74
2022/11/14 03:07:35;;;;;;;0.43;0.43;;;18.20;61.10;;;18.07;44.65;95439.06;4831032;29;20190;-74
2022/11/14 03:10:22;;;;;;;0.50;0.50;;;18.20;61.00;;;18.09;44.37;95444.16;4830921;29;20249;-74
2022/11/14 03:13:07;;;;;;;0.50;0.50;;;18.20;61.00;;;18.08;44.40;95434.56;4830424;29;20247;-75
2022/11/14 03:15:53;;;;;;;0.45;0.45;;;18.20;61.10;;;18.05;44.71;95427.06;4830750;29;20540;-74
2022/11/14 03:18:39;;;;;;;0.40;0.40;;;18.20;61.10;;;18.07;44.76;95425.00;4844136;29;20201;-74
2022/11/14 03:21:25;;;;;;;0.50;0.50;;;18.20;61.10;;;18.07;44.88;95423.13;4831176;29;20201;-74
2022/11/14 03:24:11;;;;;;;0.50;0.50;;;18.20;61.00;;;18.07;44.70;95422.34;4830736;29;20258;-74
2022/11/14 03:26:57;;;;;;;0.50;0.50;;;18.20;61.00;;;18.05;44.89;95424.41;4830902;29;20197;-74
2022/11/14 03:29:42;;;;;;;0.50;0.50;;;18.20;61.10;;;18.06;44.99;95426.81;4830818;29;20194;-74
2022/11/14 03:32:28;;;;;;;0.40;0.40;;;18.20;61.10;;;17.98;44.55;95413.88;4817913;29;20274;-74
2022/11/14 03:35:13;;;;;;;0.50;0.50;;;18.20;61.10;;;18.06;44.75;95433.97;4830694;29;20247;-74
2022/11/14 03:37:59;;;;;;;0.47;0.47;;;18.20;61.00;;;18.06;44.90;95421.50;4818065;29;20206;-74
2022/11/14 03:40:45;;;;;;;0.50;0.50;;;18.20;61.90;;;18.01;44.82;95415.28;4844401;29;20333;-74
2022/11/14 03:43:33;;;;;;;0.50;0.50;;;18.20;61.00;;;18.07;44.76;95420.47;4843227;29;20198;-74
2022/11/14 03:46:18;;;;;;;0.40;0.40;;;18.20;61.00;;;18.05;44.50;95419.91;4830451;29;20326;-74
2022/11/14 03:49:04;;;;;;;0.50;0.50;;;18.20;61.00;;;18.05;44.45;95406.66;4843112;29;20199;-74
2022/11/14 03:51:49;;;;;;;0.40;0.40;;;18.10;61.00;;;18.03;44.73;95398.09;4843905;29;20202;-74
2022/11/14 03:54:35;;;;;;;0.40;0.40;;;18.10;60.90;;;18.03;44.36;95411.34;4843098;29;20198;-74
2022/11/14 03:57:20;;;;;;;0.40;0.40;;;18.20;61.10;;;18.01;44.78;95396.69;4844028;29;20339;-74
2022/11/14 04:00:08;;;;;;;0.50;0.50;;;18.10;61.00;;;18.03;44.57;95398.09;4843133;29;20194;-74
2022/11/14 04:02:55;;;;;;;0.40;0.40;;;18.10;61.00;;;18.02;44.77;95403.63;4830475;29;20299;-74
2022/11/14 04:05:44;;;;;;;0.40;0.40;;;18.10;61.00;;;18.05;44.69;95405.81;4830119;29;20221;-74
2022/11/14 04:08:30;;;;;;;0.43;0.43;;;18.10;61.00;;;18.04;44.43;95412.97;4843691;29;20202;-75
2022/11/14 04:11:17;;;;;;;0.43;0.43;;;18.10;61.00;;;18.02;45.06;95412.38;4830862;29;20201;-74
2022/11/14 04:14:03;;;;;;;0.40;0.40;;;18.10;61.00;;;18.04;44.68;95398.88;4843074;29;20641;-75
2022/11/14 04:16:48;;;;;;;0.50;0.50;;;18.10;61.00;;;18.00;44.76;95400.38;4830283;29;20642;-75
2022/11/14 04:19:34;;;;;;;0.50;0.50;;;18.10;61.00;;;18.01;44.84;95392.19;4843159;29;20194;-74
2022/11/14 04:22:19;;;;;;;0.40;0.40;;;18.10;61.00;;;18.01;45.03;95389.53;4843326;29;20279;-75
2022/11/14 04:25:07;;;;;;;0.40;0.40;;;18.10;61.00;;;18.01;44.54;95383.44;4845396;29;20363;-75
2022/11/14 04:27:53;;;;;;;0.50;0.50;;;18.10;60.90;;;18.01;44.93;95370.16;4846116;29;20198;-75
2022/11/14 04:30:40;;;;;;;0.50;0.50;;;18.10;61.00;;;18.02;45.02;95375.22;4847134;29;20629;-74
2022/11/14 04:33:26;;;;;;;0.40;0.40;;;18.10;61.90;;;18.01;44.81;95370.94;4846329;29;20707;-74
2022/11/14 04:36:12;;;;;;;0.50;0.50;;;18.10;61.00;;;18.04;44.89;95369.69;4852234;29;20692;-75
2022/11/14 04:38:57;;;;;;;0.50;0.50;;;18.10;61.00;;;18.01;44.84;95359.53;4864192;29;20201;-75
2022/11/14 04:41:43;;;;;;;0.50;0.50;;;18.10;61.00;;;17.97;44.75;95355.72;4864567;29;20213;-75
2022/11/14 04:44:28;;;;;;;0.40;0.40;;;18.10;61.00;;;18.01;44.61;95351.59;4864315;29;20282;-74
2022/11/14 04:47:14;;;;;;;0.50;0.50;;;18.10;61.00;;;17.99;44.38;95351.81;4864432;29;20282;-75
2022/11/14 04:50:00;;;;;;;0.40;0.40;;;18.10;61.00;;;18.01;44.35;95348.94;4863926;29;20201;-74
2022/11/14 04:52:46;;;;;;;0.50;0.50;;;18.10;61.00;;;17.98;44.67;95342.22;4864021;29;20695;-74
2022/11/14 04:55:31;;;;;;;0.40;0.40;;;18.10;61.00;;;17.98;44.39;95338.75;4838499;29;20201;-74
2022/11/14 04:58:17;;;;;;;0.50;0.50;;;18.10;61.00;;;18.00;44.62;95347.31;4864208;29;20570;-74
2022/11/14 05:01:08;;;;;;;0.50;0.50;;;18.10;61.00;;;17.99;44.99;95351.00;4850986;29;20237;-74
2022/11/14 05:03:55;;;;;;;0.40;0.40;;;18.10;61.00;;;18.00;44.49;95348.09;4863785;29;20282;-75
2022/11/14 05:06:40;;;;;;;0.50;0.50;;;18.10;61.00;;;17.95;44.76;95326.75;4851353;29;20215;-75
2022/11/14 05:09:27;;;;;;;0.30;0.30;;;18.10;61.00;;;17.99;44.72;95338.53;4864821;29;20197;-74
2022/11/14 05:12:12;;;;;;;0.50;0.50;;;18.10;61.10;;;17.97;45.07;95332.66;4864447;29;20310;-74
2022/11/14 05:14:58;;;;;;;0.40;0.40;;;18.10;61.10;;;17.97;44.85;95324.69;4863937;29;20209;-75
2022/11/14 05:17:44;;;;;;;0.50;0.50;;;18.10;61.00;;;17.97;44.93;95313.25;4863655;29;20303;-75
2022/11/14 05:20:29;;;;;;;0.50;0.50;;;18.10;61.00;;;17.97;44.97;95323.84;4863766;29;20205;-75
2022/11/14 05:23:23;;;;;;;0.50;0.50;;;18.10;61.00;;;17.93;44.88;95320.81;4863885;29;20663;-74
2022/11/14 05:26:11;;;;;;;0.50;0.50;;;18.10;61.00;;;17.97;44.93;95322.03;4850548;29;20370;-74
2022/11/14 05:28:57;;;;;;;0.40;0.40;;;18.10;61.00;;;17.98;44.58;95331.63;4850539;29;20197;-74
2022/11/14 05:31:43;;;;;;;0.40;0.40;;;18.10;61.00;;;17.98;44.81;95328.97;4863850;29;20331;-75
2022/11/14 05:34:28;;;;;;;0.50;0.50;;;18.10;61.00;;;17.96;44.60;95320.41;4863811;29;20197;-75
2022/11/14 05:37:14;;;;;;;0.50;0.50;;;18.10;60.90;;;17.95;45.01;95316.13;4863236;29;20757;-75
2022/11/14 05:39:59;;;;;;;0.50;0.50;;;18.10;61.00;;;17.98;44.67;95328.13;4850247;29;20197;-74
2022/11/14 05:42:45;;;;;;;0.50;0.50;;;18.10;61.00;;;17.95;44.38;95326.75;4863988;29;20300;-75
2022/11/14 05:45:30;;;;;;;0.50;0.50;;;18.10;61.00;;;17.96;44.99;95338.19;4863162;29;20221;-74
2022/11/14 05:48:16;;;;;;;0.40;0.40;;;18.10;61.90;;;17.94;44.91;95333.06;4864063;29;20201;-75
2022/11/14 05:51:04;;;;;;;0.40;0.40;;;18.00;60.90;;;17.95;44.26;95325.94;4863185;29;20206;-75
2022/11/14 05:53:50;;;;;;;0.50;0.50;;;18.10;61.00;;;17.95;44.79;95329.41;4850755;29;20731;-75
2022/11/14 05:56:36;;;;;;;0.40;0.40;;;18.00;60.90;;;17.92;45.04;95325.34;4863676;29;20206;-75
2022/11/14 05:59:22;;;;;;;0.50;0.50;;;18.10;61.00;;;17.96;44.61;95328.38;4863005;29;20814;-74
2022/11/14 06:02:07;;;;;;;0.50;0.50;;;18.10;61.00;;;17.95;44.70;95333.91;4850159;29;20629;-75
2022/11/14 06:04:54;;;;;;;0.50;0.50;;;18.00;60.90;;;17.93;44.61;95328.78;4862686;29;20217;-75
2022/11/14 06:07:39;;;;;;;0.50;0.50;;;18.10;61.00;;;17.95;44.83;95329.41;4863264;29;20201;-75
2022/11/14 06:10:25;;;;;;;0.40;0.40;;;18.00;61.00;;;17.91;44.74;95329.00;4863291;29;20625;-75
2022/11/14 06:13:10;;;;;;;0.50;0.50;;;18.00;61.00;;;17.96;44.78;95343.50;4850019;29;20327;-74
2022/11/14 06:16:10;;;;;;;0.52;0.52;;;18.00;61.00;;;17.96;44.54;95348.81;4863603;29;20202;-74
2022/11/14 06:18:56;;;;;;;0.40;0.40;;;18.00;60.90;;;17.89;44.61;95349.69;4849719;29;20201;-74
2022/11/14 06:21:41;;;;;;;0.50;0.50;;;18.10;61.00;;;17.92;45.00;95345.75;4863297;29;20518;-74
2022/11/14 06:24:27;;;;;;;0.50;0.50;;;18.00;60.90;;;17.93;44.61;95347.34;4863383;29;20217;-74
2022/11/14 06:27:13;;;;;;;0.50;0.50;;;18.00;61.00;;;17.93;44.79;95356.16;4862649;29;20641;-74
2022/11/14 06:29:59;;;;;;;0.50;0.50;;;18.00;61.00;;;17.92;44.83;95349.22;4863239;29;20240;-74
2022/11/14 06:32:44;;;;;;;0.40;0.40;;;18.00;61.00;;;17.92;45.05;95357.19;4862637;29;20250;-74
2022/11/14 06:35:32;;;;;;;0.50;0.50;;;18.00;61.00;;;17.92;44.87;95357.19;4862857;29;20200;-74
2022/11/14 06:38:17;;;;;;;0.50;0.50;;;18.00;61.00;;;17.93;44.96;95368.59;4849650;29;20189;-74
2022/11/14 06:41:12;;;;;;;0.50;0.50;;;18.00;61.00;;;17.93;44.49;95360.63;4849350;29;20208;-75
2022/11/14 06:43:58;;;;;;;0.50;0.50;;;18.00;61.00;;;17.92;44.80;95359.03;4836506;29;20205;-74
2022/11/14 06:46:44;;;;;;;0.50;0.50;;;18.00;61.00;;;17.92;44.84;95356.38;4849169;29;20194;-74
2022/11/14 06:49:30;;;;;;;0.40;0.40;;;18.00;61.00;;;17.91;44.81;95352.09;4823865;29;20197;-75
2022/11/14 06:52:22;;;;;;;0.57;0.57;;;18.00;61.00;;;17.83;44.72;95342.59;4850107;29;20311;-74
2022/11/14 06:55:08;;;;;;;0.50;0.50;;;18.00;61.90;;;17.90;45.02;95340.66;4849420;29;20197;-74
2022/11/14 06:57:54;;;;;;;0.50;0.50;;;18.00;61.00;;;17.90;44.49;95335.34;4849329;29;20197;-74
2022/11/14 07:00:40;;;;;;;0.60;0.60;;;18.00;61.00;;;17.87;44.46;95325.22;4836505;29;20531;-74
2022/11/14 07:03:26;;;;;;;0.40;0.40;;;18.00;61.00;;;17.90;44.77;95327.41;4862845;29;20190;-74
2022/11/14 07:06:19;;;;;;;0.40;0.40;;;18.00;61.00;;;17.89;44.46;95330.28;4849007;29;20225;-75
2022/11/14 07:09:05;;;;;;;0.50;0.50;;;18.10;61.10;;;17.90;45.10;95323.94;4849269;29;20528;-74
2022/11/14 07:11:50;;;;;;;0.50;0.50;;;18.00;61.00;;;17.92;44.94;95327.19;4849182;29;20200;-74
2022/11/14 07:14:36;;;;;;;0.40;0.40;;;18.00;61.00;;;17.91;44.93;95323.72;4863134;29;20727;-74
2022/11/14 07:17:22;;;;;;;0.40;0.40;;;18.00;61.00;;;17.88;44.69;95307.44;4836366;29;20197;-74
2022/11/14 07:20:17;;;;;;;0.50;0.50;;;18.00;61.00;;;17.88;44.81;95299.47;4862612;29;20250;-74
2022/11/14 07:23:02;;;;;;;0.50;0.50;;;18.00;61.00;;;17.88;44.92;95283.56;4836794;29;20229;-74
2022/11/14 07:25:48;;;;;;;0.50;0.50;;;18.00;60.90;;;17.86;44.81;95283.78;4862736;29;20305;-74
2022/11/14 07:28:36;;;;;;;0.40;0.40;;;18.00;61.00;;;17.82;44.85;95293.25;4836209;29;20271;-74
2022/11/14 07:31:22;;;;;;;0.50;0.50;;;18.00;61.10;;;17.90;44.53;95302.72;4848994;29;20581;-74
2022/11/14 07:34:08;;;;;;;0.47;0.47;;;18.00;61.00;;;17.90;44.95;95300.06;4849056;29;20197;-74
2022/11/14 07:36:53;;;;;;;0.57;0.57;;;18.00;61.00;;;17.90;44.64;95297.41;4854887;29;20245;-74
2022/11/14 07:39:39;;;;;;;0.50;0.50;;;18.00;61.00;;;17.90;44.56;95306.16;4861877;29;20197;-74
2022/11/14 07:42:28;;;;;;;0.50;0.50;;;18.00;61.00;;;17.87;44.55;95295.19;4862034;29;20201;-74
2022/11/14 07:45:14;;;;;;;0.40;0.40;;;18.00;61.90;;;17.87;44.67;95296.03;4849088;29;20225;-75
2022/11/14 07:48:01;;;;;;;0.50;0.50;;;18.00;61.00;;;17.90;44.65;95305.38;4848909;29;20258;-74
2022/11/14 07:50:46;;;;;;;0.40;0.40;;;18.00;61.00;;;17.89;44.96;95296.63;4848744;29;20686;-74
2022/11/14 07:53:33;;;;;;;0.50;0.50;;;18.00;61.00;;;17.88;44.82;95292.34;4861802;29;20522;-74
2022/11/14 07:56:19;;;;;;;0.40;0.40;;;18.00;61.00;;;17.87;44.87;95295.19;4862196;29;20593;-74
2022/11/14 07:59:04;;;;;;;0.40;0.40;;;18.00;61.00;;;17.88;44.91;95300.28;4864503;29;20193;-74
2022/11/14 08:01:50;;;;;;;0.60;0.60;;;18.00;61.00;;;17.89;44.56;95307.22;4852188;29;20682;-74
2022/11/14 08:04:35;;;;;;;0.60;0.60;;;18.00;61.00;;;17.88;44.95;95297.66;4865156;29;20209;-74
2022/11/14 08:07:21;;;;;;;0.50;0.50;;;18.00;61.00;;;17.88;45.07;95291.50;4852148;29;20536;-74
2022/11/14 08:10:07;;;;;;;0.40;0.40;;;18.00;61.00;;;17.89;44.58;95295.78;4865067;29;20196;-74
2022/11/14 08:13:02;;;;;;;0.50;0.50;;;18.00;61.00;;;17.88;44.71;95292.34;4865185;29;20197;-74
2022/11/14 08:16:09;;;;;;;0.50;0.50;;;18.00;61.00;;;17.80;44.80;95289.19;4864903;29;20193;-75
2022/11/14 08:18:59;;;;;;;0.50;0.50;;;18.00;61.00;;;17.84;44.87;95296.47;4864958;29;20251;-74
2022/11/14 08:21:44;;;;;;;0.50;0.50;;;18.00;61.00;;;17.87;44.90;95293.38;4851675;29;20632;-74
2022/11/14 08:24:30;;;;;;;0.40;0.40;;;18.00;61.00;;;17.87;44.59;95306.63;4851894;29;20334;-74
2022/11/14 08:27:15;;;;;;;0.50;0.50;;;18.00;61.00;;;17.87;45.15;95308.47;4865907;29;20205;-76
2022/11/14 08:30:01;;;;;;;0.43;0.43;;;18.00;61.00;;;17.87;44.83;95311.94;4864617;29;20217;-74
2022/11/14 08:32:46;;;;;;;0.60;0.60;;;18.00;61.00;;;17.88;44.48;95315.41;4851510;29;20194;-74
2022/11/14 08:35:32;;;;;;;0.50;0.50;;;18.00;61.10;;;17.89;44.86;95323.16;4864410;29;20240;-75
2022/11/14 08:38:21;;;;;;;0.52;0.52;;;18.00;61.10;;;17.88;44.79;95320.69;4838775;29;20193;-82
2022/11/14 08:41:06;;;;;;;0.40;0.40;;;18.00;61.90;;;17.89;44.39;95311.72;4851474;29;20193;-74
2022/11/14 08:43:52;;;;;;;0.50;0.50;;;18.00;61.00;;;17.87;44.73;95298.69;4838837;29;20205;-75
2022/11/14 08:46:38;;;;;;;0.50;0.50;;;18.00;61.00;;;17.84;44.84;95288.50;4851312;29;20228;-74
2022/11/14 08:49:23;;;;;;;0.57;0.57;;;18.00;61.00;;;17.87;44.85;95285.41;4851850;29;20205;-75
2022/11/14 08:52:09;;;;;;;0.50;0.50;;;18.00;61.00;;;17.84;44.81;95280.53;4864227;29;20201;-75
2022/11/14 08:55:01;;;;;;;0.40;0.40;;;18.00;61.10;;;17.82;44.63;95273.84;4864906;29;20186;-75
2022/11/14 08:57:47;;;;;;;0.50;0.50;;;18.00;61.00;;;17.90;44.40;95278.84;4851624;29;20197;-74
2022/11/14 09:00:35;;;;;;;0.50;0.50;;;18.00;61.00;;;17.89;44.77;95286.00;4851476;29;20201;-75
2022/11/14 09:03:20;;;;;;;0.40;0.40;;;18.00;61.00;;;17.89;44.75;95291.31;4864448;29;20209;-74
2022/11/14 09:06:06;;;;;;;0.43;0.43;;;18.00;61.00;;;17.90;44.76;95286.78;4851418;29;20314;-74
2022/11/14 09:08:52;;;;;;;0.50;0.50;;;18.00;61.90;;;17.89;44.93;95288.66;4851165;29;20630;-74
2022/11/14 09:11:39;;;;;;;0.40;0.40;;;18.00;61.00;;;17.90;44.42;95295.56;4864364;29;20266;-75
2022/11/14 09:14:25;;;;;;;0.40;0.40;;;18.00;61.00;;;17.87;44.90;95287.22;4851074;29;20247;-74
2022/11/14 09:17:10;;;;;;;0.50;0.50;;;18.00;61.00;;;17.90;44.81;95295.56;4864392;29;20289;-75
2022/11/14 09:19:56;;;;;;;0.50;0.50;;;18.00;61.10;;;17.90;44.86;95300.06;4850981;29;20634;-74
2022/11/14 09:22:41;;;;;;;0.43;0.43;;;18.00;61.00;;;17.89;44.93;95307.22;4838427;29;20516;-75
2022/11/14 09:25:29;;;;;;;0.60;0.60;;;18.00;61.00;;;17.90;44.85;95300.84;4850804;29;20224;-75
2022/11/14 09:28:15;;;;;;;0.50;0.50;;;18.00;61.00;;;17.89;44.75;95293.97;4850885;29;20285;-75
2022/11/14 09:31:04;;;;;;;0.50;0.50;;;18.00;61.00;;;17.92;44.64;95304.09;4864280;29;20206;-75
2022/11/14 09:33:49;;;;;;;0.50;0.50;;;18.00;61.00;;;17.90;44.75;95292.09;4850670;29;20291;-74
2022/11/14 09:36:35;;;;;;;0.50;0.50;;;18.00;61.00;;;17.91;45.24;95283.09;4854028;29;20329;-74
2022/11/14 09:39:21;;;;;;;0.40;0.40;;;18.00;61.00;;;17.91;44.50;95280.44;4850525;29;20197;-75
2022/11/14 09:42:56;;;;;;;0.45;0.45;;;18.00;61.00;;;17.90;44.95;95286.78;4850190;29;20274;-74
2022/11/14 09:45:48;;;;;;;0.50;0.50;;;18.00;61.00;;;17.89;45.05;95280.69;4864055;29;20233;-75
2022/11/14 09:48:34;;;;;;;0.60;0.60;;;18.00;61.00;;;17.83;44.59;95260.34;4850436;29;20217;-75
2022/11/14 09:51:31;;;;;;;0.50;0.50;;;18.00;61.00;;;17.85;44.39;95271.56;4850234;29;20197;-74
2022/11/14 09:54:24;;;;;;;0.50;0.50;;;18.00;61.00;;;17.89;44.93;95270.06;4863331;29;20205;-74
2022/11/14 09:57:19;;;;;;;0.60;0.60;;;18.00;61.90;;;17.90;44.58;95265.56;4850026;29;20231;-75
2022/11/14 10:00:28;;;;;;;0.50;0.50;;;18.00;61.00;;;17.88;44.77;95263.16;4849977;29;20207;-74
2022/11/14 10:03:24;;;;;;;0.60;0.60;;;18.00;61.00;;;17.90;44.32;95270.88;4863458;29;20204;-74
2022/11/14 10:06:29;;;;;;;0.40;0.40;;;18.00;61.00;;;17.88;44.55;95260.50;4863704;29;20217;-75
2022/11/14 10:10:02;;;;;;;0.60;0.60;;;18.00;61.00;;;17.88;44.97;95268.47;4849790;29;20282;-74
2022/11/14 10:13:20;;;;;;;0.50;0.50;;;18.00;61.00;;;17.87;44.92;95260.69;4850227;29;20621;-74
2022/11/14 10:16:21;;;;;;;0.40;0.40;;;18.00;61.00;;;17.79;44.99;95242.47;4863569;29;20196;-75
2022/11/14 10:19:36;;;;;;;0.40;0.40;;;18.00;61.00;;;17.86;44.93;95249.28;4863683;29;20212;-75
2022/11/14 10:23:11;;;;;;;0.50;0.50;;;18.00;61.00;;;17.87;45.01;95250.91;4861517;29;20202;-75
2022/11/14 10:26:22;;;;;;;0.50;0.50;;;18.00;61.00;;;17.86;44.59;95246.63;4862494;29;20229;-74
2022/11/14 10:29:29;;;;;;;0.40;0.40;;;18.00;61.00;;;17.88;45.02;95257.84;4849729;29;20190;-75
2022/11/14 10:32:42;;;;;;;0.50;0.50;;;18.00;61.00;;;17.87;44.49;95250.09;4862743;29;20211;-74
2022/11/14 10:35:38;;;;;;;0.50;0.50;;;18.00;61.00;;;17.85;44.64;95242.38;4863222;29;20205;-75
2022/11/14 10:38:36;;;;;;;0.50;0.50;;;18.00;61.00;;;17.83;44.63;95235.69;4837087;29;20197;-74
2022/11/14 10:41:24;;;;;;;0.43;0.43;;;18.00;61.10;;;17.90;44.72;95236.38;4849820;29;20197;-74
2022/11/14 10:44:40;;;;;;;0.50;0.50;;;18.00;61.10;;;17.90;44.88;95242.47;4852436;29;20202;-74
2022/11/14 10:47:45;;;;;;;0.50;0.50;;;18.00;61.10;;;17.90;44.95;95242.47;4863299;29;20225;-74
2022/11/14 10:51:10;;;;;;;0.50;0.50;;;18.00;61.10;;;17.88;45.13;95239.25;4849482;29;20196;-75
2022/11/14 10:54:12;;;;;;;0.50;0.50;;;18.00;61.10;;;17.88;44.89;95233.97;4849669;29;20196;-74
2022/11/14 10:56:58;;;;;;;0.50;0.50;;;18.00;61.00;;;17.91;44.95;95230.81;4849553;29;20201;-75
2022/11/14 10:59:44;;;;;;;0.50;0.50;;;18.00;61.00;;;17.88;44.63;95223.34;4836775;29;20630;-74
2022/11/14 11:02:50;;;;;;;0.50;0.50;;;18.00;62.00;;;17.93;44.86;95233.25;4836513;29;20709;-74
2022/11/14 11:05:59;;;;;;;0.50;0.50;;;18.00;61.10;;;17.91;44.98;95230.81;4862865;29;20253;-75
2022/11/14 11:12:02;;;;;;;0.43;0.43;;;18.00;61.10;;;17.96;44.56;95222.22;4851591;29;20197;-74
2022/11/14 11:15:12;;;;;;;0.40;0.40;;;18.00;61.00;;;17.95;44.60;95215.28;4849590;29;20291;-74
2022/11/14 11:18:33;;;;;;;0.50;0.50;;;18.00;61.00;;;17.96;44.93;95202.84;4849613;29;20641;-74
2022/11/14 11:21:22;;;;;;;0.45;0.45;;;18.00;60.90;;;17.90;44.86;95191.25;4849270;29;20201;-74
2022/11/14 11:24:08;;;;;;;0.50;0.50;;;18.10;61.00;;;17.99;44.99;95203.19;4849146;29;20201;-74
2022/11/14 11:27:29;;;;;;;0.40;0.40;;;18.10;61.00;;;17.98;44.78;95184.81;4836438;29;20292;-74
2022/11/14 11:30:21;;;;;;;0.50;0.50;;;18.10;61.00;;;17.98;44.48;95183.00;4827293;29;20209;-75
2022/11/14 11:33:28;;;;;;;0.40;0.40;;;18.10;61.00;;;17.99;44.71;95178.47;4864073;29;20194;-74
2022/11/14 11:36:19;;;;;;;0.50;0.50;;;18.10;61.00;;;17.95;44.48;95170.16;4853477;29;20688;-74
2022/11/14 11:39:04;;;;;;;0.40;0.40;;;18.10;61.00;;;18.00;44.66;95170.28;4866795;29;20213;-74
2022/11/14 11:41:53;;;;;;;0.50;0.50;;;18.10;61.00;;;18.00;44.74;95178.25;4852681;29;20278;-74
2022/11/14 11:44:59;;;;;;;0.50;0.50;;;18.10;61.00;;;18.00;44.37;95185.41;4854616;29;20185;-74
2022/11/14 11:47:58;;;;;;;0.60;0.60;;;18.10;61.00;;;18.00;44.85;95182.75;4852230;29;20286;-75
2022/11/14 11:50:44;;;;;;;0.40;0.40;;;18.10;61.00;;;17.99;44.25;95187.25;4852409;29;20266;-75
2022/11/14 11:53:35;;;;;;;0.55;0.55;;;18.10;60.90;;;17.99;44.69;95184.59;4852707;29;20347;-74
2022/11/14 11:56:29;;;;;;;0.50;0.50;;;18.10;61.00;;;17.95;44.48;95170.16;4839491;29;20213;-75